Wheatfield, New York
Current Conditions -  °F | °C
As of 6:53 AM on Friday 24 Oct 2014 (Local Time) from KIAG Reporting Station
Clear Clear  
Wind Chill: 37°   Ceiling: Unl
Heat Index: 40°   Visibility: 10mi
Dew Point: 37°   Wind: 5mph
Humidity: 89%   Direction: 280°W
Pressure: 30.04"   Gusts: NA
Location:  43.1007°N, 78.9485°W
Report Text: KIAG 241053Z AUTO 28004KT 10SM CLR 04/03 A3004 RMK AO2 SLP179 T00440028
Loading
Personal Weather Stations






























Interactive Weather Map
Tropical Storm Tracking
New forecast layout! Learn more

10-Day Weather Forecast

Advertisements
Track Severe Weather on mobile